This is the latest recevied weather packets stored in our database for station/object KE6RLG. If no packets are shown the sender has not sent any weather packets the latest 10 day(s).
| Time | Temp. | Humidity | Pressure | Rain* | Wind** | Luminosity | Snow |
|---|---|---|---|---|---|---|---|
| 1777372537 | 10° C | 74% | 1016.2 hPa | 0 mm | - | 0 W/m² | - |
| 1777371017 | 9.44° C | 76% | 1016.3 hPa | 0 mm | - | 0 W/m² | - |
| 1777367118 | 10.56° C | 73% | 1016.9 hPa | 0 mm | - | 0 W/m² | - |
| 1777365918 | 10.56° C | 73% | 1017 hPa | 0 mm | - | 0 W/m² | - |
| 1777365038 | 10° C | 75% | 1017.3 hPa | 0 mm | - | 0 W/m² | - |
| 1777364738 | 10° C | 74% | 1017.4 hPa | 0 mm | - | 0 W/m² | - |
| 1777362619 | 10° C | 76% | 1017.5 hPa | 0 mm | - | 0 W/m² | - |
| 1777362319 | 10° C | 77% | 1017.4 hPa | 0 mm | - | 0 W/m² | - |
| 1777359019 | 11.11° C | 74% | 1017.4 hPa | 0 mm | - | 0 W/m² | - |
| 1777358420 | 11.67° C | 73% | 1017.3 hPa | 0 mm | - | 0 W/m² | - |
| 1777354521 | 13.33° C | 71% | 1017.3 hPa | 0 mm | - | 0 W/m² | - |
| 1777353921 | 13.89° C | 72% | 1017.2 hPa | 0 mm | - | 0 W/m² | - |
| 1777353661 | 13.89° C | 72% | 1017.3 hPa | 0 mm | - | 0 W/m² | - |
| 1777351819 | 13.89° C | 70% | 1017.2 hPa | 0 mm | - | 0 W/m² | - |
| 1777351219 | 13.89° C | 69% | 1017.1 hPa | 0 mm | - | 0 W/m² | - |
| 1777350619 | 13.89° C | 69% | 1017 hPa | 0 mm | - | 0 W/m² | - |
| 1777349716 | 13.89° C | 67% | 1016.8 hPa | 0 mm | - | 0 W/m² | - |
| 1777346737 | 14.44° C | 67% | 1016.2 hPa | 0 mm | - | 0 W/m² | - |
| 1777346437 | 14.44° C | 67% | 1016.1 hPa | 0 mm | - | 0 W/m² | - |
| 1777345518 | 15° C | 68% | 1016 hPa | 0 mm | - | 0 W/m² | - |
| 1777342538 | 15.56° C | 64% | 1015.5 hPa | 0 mm | - | 22 W/m² | - |
| 1777342218 | 15.56° C | 64% | 1015.5 hPa | 0 mm | - | 26 W/m² | - |
| 1777337419 | 17.22° C | 54% | 1015.6 hPa | 0 mm | - | 242 W/m² | - |
| 1777336819 | 17.78° C | 49% | 1015.6 hPa | 0 mm | - | 277 W/m² | - |
| 1777336219 | 17.22° C | 51% | 1015.5 hPa | 0 mm | - | 311 W/m² | - |
* Rain latest hour (hover to see other rain measurements)
** Current wind speed in m/s (hover to see current wind gust speed)